createdAt,value
2017-12-19T00:01:46.858Z,96.10
2017-12-19T00:04:14.408Z,96.10
2017-12-19T00:06:41.936Z,96.10
2017-12-19T00:09:10.253Z,96.20
2017-12-19T00:11:37.808Z,96.20
2017-12-19T00:14:05.477Z,96.10
2017-12-19T00:16:33.242Z,96.10
2017-12-19T00:19:00.944Z,96.00
2017-12-19T00:21:28.791Z,96.10
2017-12-19T00:23:57.144Z,96.00
2017-12-19T00:26:25.946Z,96.00
2017-12-19T00:28:53.988Z,96.10
2017-12-19T00:31:23.726Z,96.10
2017-12-19T00:33:53.602Z,96.10
2017-12-19T00:36:22.721Z,96.00
2017-12-19T00:38:51.526Z,96.10
2017-12-19T00:41:19.186Z,96.10
2017-12-19T00:43:46.711Z,96.00
2017-12-19T00:46:15.051Z,96.10
2017-12-19T00:48:42.586Z,96.10
2017-12-19T00:51:10.117Z,96.20
2017-12-19T00:53:38.437Z,96.20
2017-12-19T00:56:06.017Z,96.20
2017-12-19T00:58:33.683Z,96.30
2017-12-19T01:01:01.407Z,96.10
2017-12-19T01:03:29.276Z,96.20
2017-12-19T01:05:57.186Z,96.20
2017-12-19T01:08:25.527Z,96.10
2017-12-19T01:10:53.390Z,96.10
2017-12-19T01:13:21.317Z,96.10
2017-12-19T01:15:48.911Z,96.10
2017-12-19T01:18:16.461Z,96.20
2017-12-19T01:20:43.990Z,96.20
2017-12-19T01:23:11.546Z,96.10
2017-12-19T01:25:39.093Z,96.40
2017-12-19T01:28:06.642Z,96.20
2017-12-19T01:30:34.402Z,96.10
2017-12-19T01:33:02.035Z,96.10
2017-12-19T01:35:29.832Z,96.10
2017-12-19T01:37:57.474Z,96.10
2017-12-19T01:40:25.879Z,96.00
2017-12-19T01:42:54.008Z,96.10
2017-12-19T01:45:22.410Z,96.00
2017-12-19T01:47:50.478Z,95.90
2017-12-19T01:50:18.037Z,96.00
2017-12-19T01:52:45.553Z,96.00
2017-12-19T01:55:13.102Z,95.90
2017-12-19T01:57:40.634Z,95.90
2017-12-19T02:00:08.191Z,96.00
2017-12-19T02:02:35.741Z,95.90
2017-12-19T02:05:03.406Z,95.80
2017-12-19T02:07:31.154Z,95.70
2017-12-19T02:09:59.142Z,95.70
2017-12-19T02:12:27.098Z,95.80
2017-12-19T02:14:55.644Z,95.90
2017-12-19T02:17:24.924Z,95.90
2017-12-19T02:19:53.634Z,95.90
2017-12-19T02:22:22.240Z,95.90
2017-12-19T02:24:50.231Z,95.80
2017-12-19T02:27:18.617Z,95.90
2017-12-19T02:29:46.145Z,95.90
2017-12-19T02:32:14.454Z,95.90
2017-12-19T02:34:42.180Z,95.90
2017-12-19T02:37:10.480Z,95.80
2017-12-19T02:39:38.062Z,95.80
2017-12-19T02:42:05.856Z,95.80
2017-12-19T02:44:34.211Z,95.70
2017-12-19T02:47:02.061Z,95.70
2017-12-19T02:49:30.505Z,95.90
2017-12-19T02:51:58.439Z,95.80
2017-12-19T02:54:27.198Z,95.80
2017-12-19T02:56:55.707Z,95.80
2017-12-19T02:59:26.452Z,95.80
2017-12-19T03:01:55.333Z,95.80
2017-12-19T03:04:24.828Z,95.70
2017-12-19T03:06:54.219Z,95.80
2017-12-19T03:09:22.588Z,95.80
2017-12-19T03:11:52.197Z,95.70
2017-12-19T03:14:20.995Z,95.70
2017-12-19T03:16:49.474Z,95.80
2017-12-19T03:19:18.072Z,95.80
2017-12-19T03:21:45.610Z,95.80
2017-12-19T03:24:13.161Z,95.80
2017-12-19T03:26:41.481Z,95.80
2017-12-19T03:29:10.892Z,95.80
2017-12-19T03:31:38.645Z,95.80
2017-12-19T03:34:06.318Z,95.80
2017-12-19T03:36:33.949Z,95.80
2017-12-19T03:39:01.824Z,95.70
2017-12-19T03:41:29.595Z,95.70
2017-12-19T03:43:57.710Z,95.80
2017-12-19T03:46:26.764Z,95.90
2017-12-19T03:48:55.087Z,95.90
2017-12-19T03:51:23.562Z,95.80
2017-12-19T03:53:52.729Z,95.90
2017-12-19T03:56:20.999Z,95.90
2017-12-19T03:58:48.638Z,95.80
2017-12-19T04:01:16.179Z,95.80
2017-12-19T04:03:43.774Z,95.80
2017-12-19T04:06:11.313Z,95.80
2017-12-19T04:08:39.605Z,95.90
2017-12-19T04:11:07.185Z,95.90
2017-12-19T04:13:35.546Z,95.80
2017-12-19T04:16:03.257Z,95.90
2017-12-19T04:18:31.968Z,96.00
2017-12-19T04:20:59.764Z,95.90
2017-12-19T04:23:27.655Z,96.00
2017-12-19T04:25:56.199Z,96.00
2017-12-19T04:28:24.102Z,96.00
2017-12-19T04:30:51.989Z,96.00
2017-12-19T04:33:20.040Z,96.00
2017-12-19T04:35:48.398Z,96.10
2017-12-19T04:38:15.947Z,96.10
2017-12-19T04:40:44.282Z,96.40
2017-12-19T04:43:11.890Z,96.10
2017-12-19T04:45:40.198Z,96.00
2017-12-19T04:48:07.765Z,96.00
2017-12-19T04:50:35.525Z,95.90
2017-12-19T04:53:03.499Z,96.00
2017-12-19T04:55:31.359Z,96.10
2017-12-19T04:57:59.329Z,96.00
2017-12-19T05:00:26.992Z,96.00
2017-12-19T05:02:55.793Z,96.00
2017-12-19T05:05:24.059Z,96.00
2017-12-19T05:07:53.237Z,96.00
2017-12-19T05:10:23.957Z,96.00
2017-12-19T05:12:52.883Z,96.10
2017-12-19T05:15:22.796Z,96.10
2017-12-19T05:17:50.966Z,96.20
2017-12-19T05:20:18.515Z,96.20
2017-12-19T05:22:46.038Z,96.10
2017-12-19T05:25:15.101Z,96.10
2017-12-19T05:27:42.631Z,96.10
2017-12-19T05:30:10.184Z,96.10
2017-12-19T05:32:37.730Z,96.20
2017-12-19T05:35:06.102Z,96.30
2017-12-19T05:37:33.822Z,96.30
2017-12-19T05:40:02.394Z,96.30
2017-12-19T05:42:30.468Z,96.20
2017-12-19T05:44:58.747Z,96.20
2017-12-19T05:47:27.646Z,96.30
2017-12-19T05:49:56.124Z,96.30
2017-12-19T05:52:25.113Z,96.30
2017-12-19T05:54:53.672Z,96.40
2017-12-19T05:57:21.869Z,96.30
2017-12-19T05:59:49.515Z,96.30
2017-12-19T06:02:17.105Z,96.40
2017-12-19T06:04:44.637Z,96.40
2017-12-19T06:07:12.201Z,96.40
2017-12-19T06:09:39.741Z,96.50
2017-12-19T06:12:08.071Z,96.50
2017-12-19T06:14:35.667Z,96.50
2017-12-19T06:17:03.357Z,96.50
2017-12-19T06:19:31.060Z,96.60
2017-12-19T06:21:58.907Z,96.60
2017-12-19T06:24:27.500Z,96.60
2017-12-19T06:26:56.582Z,96.60
2017-12-19T06:29:24.460Z,96.70
2017-12-19T06:31:52.219Z,96.70
2017-12-19T06:34:21.324Z,96.60
2017-12-19T06:36:50.142Z,96.70
2017-12-19T06:39:17.819Z,96.70
2017-12-19T06:41:45.345Z,96.70
2017-12-19T06:44:12.874Z,96.50
2017-12-19T06:46:40.417Z,96.70
2017-12-19T06:49:08.720Z,96.80
2017-12-19T06:51:36.268Z,96.80
2017-12-19T06:54:03.838Z,96.80
2017-12-19T06:56:31.507Z,96.80
2017-12-19T06:58:59.505Z,96.80
2017-12-19T07:01:27.154Z,96.80
2017-12-19T07:03:55.010Z,96.80
2017-12-19T07:06:22.983Z,96.90
2017-12-19T07:08:50.844Z,96.90
2017-12-19T07:11:18.559Z,96.80
2017-12-19T07:13:46.112Z,96.80
2017-12-19T07:16:13.685Z,96.90
2017-12-19T07:18:41.209Z,96.90
2017-12-19T07:21:08.769Z,96.90
2017-12-19T07:23:36.317Z,96.90
2017-12-19T07:26:03.946Z,97.00
2017-12-19T07:28:32.454Z,97.10
2017-12-19T07:31:00.255Z,97.10
2017-12-19T07:33:28.689Z,97.10
2017-12-19T07:35:56.470Z,97.10
2017-12-19T07:38:24.541Z,97.10
2017-12-19T07:40:52.825Z,97.10
2017-12-19T07:43:20.554Z,97.20
2017-12-19T07:45:48.093Z,97.30
2017-12-19T07:48:16.426Z,97.00
2017-12-19T07:50:43.983Z,97.20
2017-12-19T07:53:12.631Z,97.30
2017-12-19T07:55:40.933Z,97.30
2017-12-19T07:58:08.477Z,97.30
2017-12-19T08:00:36.013Z,97.30
2017-12-19T08:03:03.534Z,97.30
2017-12-19T08:05:31.162Z,97.30
2017-12-19T08:07:58.845Z,97.30
2017-12-19T08:10:26.730Z,97.40
2017-12-19T08:12:55.170Z,97.40
2017-12-19T08:15:23.255Z,97.40
2017-12-19T08:17:51.137Z,97.30
2017-12-19T08:20:18.691Z,97.30
2017-12-19T08:22:46.356Z,97.30
2017-12-19T08:25:14.041Z,97.30
2017-12-19T08:27:42.403Z,97.30
2017-12-19T08:30:09.934Z,97.30
2017-12-19T08:32:38.234Z,97.20
2017-12-19T08:35:05.825Z,97.20
2017-12-19T08:37:33.355Z,97.20
2017-12-19T08:40:01.154Z,97.20
2017-12-19T08:42:28.989Z,97.10
2017-12-19T08:44:56.761Z,97.20
2017-12-19T08:47:24.582Z,97.20
2017-12-19T08:49:53.535Z,97.20
2017-12-19T08:52:21.362Z,97.20
2017-12-19T08:54:48.898Z,97.30
2017-12-19T08:57:18.179Z,97.30
2017-12-19T08:59:45.804Z,97.30
2017-12-19T09:02:13.377Z,97.20
2017-12-19T09:04:41.182Z,97.20
2017-12-19T09:07:09.487Z,97.00
2017-12-19T09:09:37.116Z,97.20
2017-12-19T09:12:05.430Z,97.20
2017-12-19T09:14:32.994Z,97.20
2017-12-19T09:17:00.589Z,97.40
2017-12-19T09:19:28.331Z,97.20
2017-12-19T09:21:56.433Z,97.20
2017-12-19T09:24:24.248Z,97.10
2017-12-19T09:26:52.745Z,97.20
2017-12-19T09:29:20.290Z,97.20
2017-12-19T09:31:48.076Z,97.20
2017-12-19T09:34:15.840Z,97.20
2017-12-19T09:36:44.128Z,97.30
2017-12-19T09:39:12.061Z,97.30
2017-12-19T09:41:40.122Z,97.30
2017-12-19T09:44:07.742Z,97.10
2017-12-19T09:46:35.265Z,97.10
2017-12-19T09:49:02.809Z,97.10
2017-12-19T09:51:30.333Z,97.00
2017-12-19T09:53:57.915Z,97.00
2017-12-19T09:56:25.456Z,96.90
2017-12-19T09:58:52.980Z,97.20
2017-12-19T10:01:20.703Z,96.90
2017-12-19T10:03:48.348Z,96.80
2017-12-19T10:06:16.173Z,96.90
2017-12-19T10:08:44.963Z,96.90
2017-12-19T10:11:13.139Z,96.90
2017-12-19T10:13:41.108Z,97.00
2017-12-19T10:16:08.775Z,96.90
2017-12-19T10:18:36.370Z,96.90
2017-12-19T10:21:04.000Z,96.70
2017-12-19T10:23:32.365Z,96.80
2017-12-19T10:25:59.909Z,96.60
2017-12-19T10:28:27.459Z,96.70
2017-12-19T10:30:55.744Z,96.70
2017-12-19T10:33:24.104Z,96.70
2017-12-19T10:35:51.621Z,96.70
2017-12-19T10:38:19.410Z,96.60
2017-12-19T10:40:47.034Z,96.40
2017-12-19T10:43:14.917Z,96.40
2017-12-19T10:45:42.781Z,96.30
2017-12-19T10:48:12.072Z,96.30
2017-12-19T10:50:40.145Z,96.40
2017-12-19T10:53:07.745Z,96.40
2017-12-19T10:55:35.428Z,96.40
2017-12-19T10:58:03.348Z,96.20
2017-12-19T11:00:30.980Z,96.00
2017-12-19T11:02:58.534Z,96.00
2017-12-19T11:05:26.818Z,95.90
2017-12-19T11:07:54.353Z,95.90
2017-12-19T11:10:22.693Z,96.20
2017-12-19T11:12:50.218Z,96.20
2017-12-19T11:15:18.000Z,96.20
2017-12-19T11:17:45.766Z,95.60
2017-12-19T11:20:13.530Z,95.50
2017-12-19T11:22:41.501Z,95.70
2017-12-19T11:25:09.133Z,95.70
2017-12-19T11:27:37.433Z,95.70
2017-12-19T11:30:04.994Z,95.70
2017-12-19T11:32:32.545Z,95.70
2017-12-19T11:35:00.833Z,95.90
2017-12-19T11:37:28.366Z,95.90
2017-12-19T11:39:56.660Z,95.90
2017-12-19T11:42:24.943Z,95.80
2017-12-19T11:44:52.485Z,95.80
2017-12-19T11:47:20.832Z,95.60
2017-12-19T11:49:49.223Z,95.30
2017-12-19T11:52:17.674Z,95.60
2017-12-19T11:54:45.629Z,95.60
2017-12-19T11:57:13.686Z,95.90
2017-12-19T11:59:41.853Z,95.90
2017-12-19T12:02:09.639Z,95.70
2017-12-19T12:04:38.093Z,96.00
2017-12-19T12:07:06.427Z,96.00
2017-12-19T12:09:34.861Z,96.20
2017-12-19T12:12:02.585Z,96.20
2017-12-19T12:14:30.189Z,96.30
2017-12-19T12:16:57.715Z,96.30
2017-12-19T12:19:25.264Z,96.40
2017-12-19T12:21:52.828Z,96.40
2017-12-19T12:24:20.633Z,96.20
2017-12-19T12:26:48.415Z,96.20
2017-12-19T12:29:16.057Z,96.20
2017-12-19T12:31:44.902Z,96.40
2017-12-19T12:34:13.706Z,96.00
2017-12-19T12:36:42.627Z,96.10
2017-12-19T12:39:11.854Z,96.00
2017-12-19T12:41:41.206Z,96.10
2017-12-19T12:44:10.045Z,95.90
2017-12-19T12:46:37.926Z,95.90
2017-12-19T12:49:05.489Z,96.00
2017-12-19T12:51:33.053Z,95.80
2017-12-19T12:54:00.622Z,95.90
2017-12-19T12:56:28.173Z,96.10
2017-12-19T12:58:55.709Z,96.00
2017-12-19T13:01:23.276Z,96.30
2017-12-19T13:03:51.279Z,96.30
2017-12-19T13:06:19.216Z,96.10
2017-12-19T13:08:47.061Z,96.20
2017-12-19T13:11:15.206Z,96.30
2017-12-19T13:13:45.270Z,96.30
2017-12-19T13:16:14.372Z,96.20
2017-12-19T13:18:42.962Z,96.20
2017-12-19T13:21:11.542Z,96.20
2017-12-19T13:23:39.535Z,96.10
2017-12-19T13:26:07.186Z,96.20
2017-12-19T13:28:34.721Z,96.10
2017-12-19T13:31:02.255Z,96.20
2017-12-19T13:33:30.571Z,96.40
2017-12-19T13:35:58.109Z,96.30
2017-12-19T13:38:25.653Z,96.30
2017-12-19T13:40:54.503Z,96.00
2017-12-19T13:43:22.561Z,96.00
2017-12-19T13:45:51.256Z,96.10
2017-12-19T13:48:19.419Z,96.10
2017-12-19T13:50:47.811Z,96.20
2017-12-19T13:53:16.887Z,96.30
2017-12-19T13:55:45.157Z,96.30
2017-12-19T13:58:13.028Z,96.40
2017-12-19T14:00:41.105Z,96.00
2017-12-19T14:03:08.969Z,96.00
2017-12-19T14:05:36.548Z,96.10
2017-12-19T14:08:04.101Z,95.90
2017-12-19T14:10:31.617Z,95.80
2017-12-19T14:12:59.929Z,95.70
2017-12-19T14:15:27.562Z,95.70
2017-12-19T14:17:55.104Z,96.00
2017-12-19T14:20:22.644Z,96.00
2017-12-19T14:22:50.804Z,95.90
2017-12-19T14:25:19.783Z,95.70
2017-12-19T14:27:47.357Z,95.70
2017-12-19T14:30:15.318Z,95.60
2017-12-19T14:32:43.756Z,95.70
2017-12-19T14:35:12.168Z,95.70
2017-12-19T14:37:41.061Z,95.90
2017-12-19T14:40:08.591Z,95.70
2017-12-19T14:42:36.899Z,95.80
2017-12-19T14:45:04.461Z,95.80
2017-12-19T14:47:32.014Z,95.80
2017-12-19T14:49:59.534Z,95.90
2017-12-19T14:52:27.053Z,95.80
2017-12-19T14:54:54.594Z,95.80
2017-12-19T14:57:22.287Z,95.60
2017-12-19T14:59:49.940Z,95.80
2017-12-19T15:02:17.594Z,95.70
2017-12-19T15:04:45.564Z,96.10
2017-12-19T15:07:13.953Z,95.60
2017-12-19T15:09:42.220Z,95.80
2017-12-19T15:12:10.505Z,95.80
2017-12-19T15:14:38.061Z,95.80
2017-12-19T15:17:05.598Z,95.60
2017-12-19T15:19:33.128Z,95.70
2017-12-19T15:22:00.677Z,95.90
2017-12-19T15:24:28.205Z,95.70
2017-12-19T15:26:55.737Z,95.70
2017-12-19T15:29:23.351Z,95.60
2017-12-19T15:31:50.917Z,95.60
2017-12-19T15:34:19.769Z,95.70
2017-12-19T15:36:47.497Z,95.70
2017-12-19T15:39:15.723Z,95.50
2017-12-19T15:41:44.800Z,95.70
2017-12-19T15:44:13.284Z,95.70
2017-12-19T15:46:41.459Z,95.70
2017-12-19T15:49:10.891Z,95.50
2017-12-19T15:51:38.461Z,95.50
2017-12-19T15:54:07.005Z,95.30
2017-12-19T15:56:35.480Z,95.30
2017-12-19T15:59:03.021Z,95.30
2017-12-19T16:01:31.352Z,95.20
2017-12-19T16:03:58.872Z,95.20
2017-12-19T16:06:26.387Z,95.00
2017-12-19T16:08:53.938Z,95.00
2017-12-19T16:11:22.012Z,95.00
2017-12-19T16:13:49.944Z,95.20
2017-12-19T16:16:17.914Z,95.00
2017-12-19T16:18:46.736Z,94.80
2017-12-19T16:21:14.572Z,95.00
2017-12-19T16:23:43.887Z,94.90
2017-12-19T16:26:12.063Z,94.90
2017-12-19T16:28:39.827Z,94.40
2017-12-19T16:31:07.611Z,94.30
2017-12-19T16:33:36.075Z,94.60
2017-12-19T16:36:04.212Z,94.50
2017-12-19T16:38:32.866Z,94.50
2017-12-19T16:41:01.416Z,94.40
2017-12-19T16:43:29.034Z,94.40
2017-12-19T16:45:57.330Z,94.50
2017-12-19T16:48:25.637Z,94.40
2017-12-19T16:50:53.344Z,94.40
2017-12-19T16:53:22.399Z,94.40
2017-12-19T16:55:50.454Z,94.40
2017-12-19T16:58:18.378Z,94.50
2017-12-19T17:00:47.954Z,94.10
2017-12-19T17:03:16.739Z,94.10
2017-12-19T17:05:45.418Z,94.20
2017-12-19T17:08:13.462Z,94.20
2017-12-19T17:10:42.534Z,93.80
2017-12-19T17:13:10.791Z,94.00
2017-12-19T17:15:38.681Z,94.10
2017-12-19T17:18:06.505Z,94.00
2017-12-19T17:20:34.955Z,94.80
2017-12-19T17:23:02.499Z,94.80
2017-12-19T17:25:30.802Z,94.80
2017-12-19T17:27:58.344Z,94.80
2017-12-19T17:30:26.638Z,94.90
2017-12-19T17:32:54.183Z,95.20
2017-12-19T17:35:22.796Z,94.70
2017-12-19T17:37:50.562Z,94.70
2017-12-19T17:40:19.196Z,95.10
2017-12-19T17:42:46.866Z,95.10
2017-12-19T17:45:15.526Z,95.10
2017-12-19T17:47:44.521Z,95.30
2017-12-19T17:50:13.792Z,95.30
2017-12-19T17:52:42.208Z,95.20
2017-12-19T17:55:11.215Z,95.20
2017-12-19T17:57:39.723Z,95.40
2017-12-19T18:00:09.518Z,95.50
2017-12-19T18:02:38.989Z,95.50
2017-12-19T18:05:09.627Z,95.50
2017-12-19T18:07:37.670Z,95.50
2017-12-19T18:10:06.767Z,95.70
2017-12-19T18:12:35.142Z,95.70
2017-12-19T18:15:02.798Z,95.70
2017-12-19T18:17:30.319Z,95.80
2017-12-19T18:19:57.865Z,95.80
2017-12-19T18:22:25.384Z,96.30
2017-12-19T18:24:52.925Z,96.00
2017-12-19T18:27:20.450Z,95.90
2017-12-19T18:29:48.991Z,95.70
2017-12-19T18:32:16.879Z,95.80
2017-12-19T18:34:44.960Z,95.80
2017-12-19T18:37:14.232Z,96.00
2017-12-19T18:39:42.667Z,95.80
2017-12-19T18:42:12.197Z,96.00
2017-12-19T18:44:49.544Z,96.10
2017-12-19T18:47:19.106Z,96.10
2017-12-19T18:49:46.986Z,96.10
2017-12-19T18:52:14.811Z,96.10
2017-12-19T18:54:42.830Z,96.10
2017-12-19T18:57:11.643Z,96.20
2017-12-19T18:59:40.222Z,96.40
2017-12-19T19:02:09.242Z,96.20
2017-12-19T19:04:37.684Z,96.30
2017-12-19T19:07:05.242Z,96.40
2017-12-19T19:09:32.757Z,96.40
2017-12-19T19:12:01.065Z,96.50
2017-12-19T19:14:29.238Z,96.30
2017-12-19T19:16:56.776Z,96.40
2017-12-19T19:19:24.461Z,96.30
2017-12-19T19:21:52.375Z,96.30
2017-12-19T19:24:20.950Z,96.40
2017-12-19T19:26:49.295Z,96.40
2017-12-19T19:29:18.053Z,96.50
2017-12-19T19:31:45.962Z,96.50
2017-12-19T19:34:14.657Z,96.50
2017-12-19T19:36:43.032Z,96.50
2017-12-19T19:39:11.873Z,96.50
2017-12-19T19:41:40.853Z,96.30
2017-12-19T19:44:11.075Z,96.60
2017-12-19T19:46:38.913Z,96.40
2017-12-19T19:49:09.098Z,96.50
2017-12-19T19:51:37.199Z,96.40
2017-12-19T19:54:04.743Z,96.30
2017-12-19T19:56:32.970Z,96.20
2017-12-19T19:59:01.520Z,96.20
2017-12-19T20:01:29.053Z,96.20
2017-12-19T20:03:57.393Z,96.10
2017-12-19T20:06:24.930Z,96.10
2017-12-19T20:08:52.516Z,96.10
2017-12-19T20:11:20.063Z,96.10
2017-12-19T20:13:48.005Z,96.00
2017-12-19T20:16:16.350Z,96.00
2017-12-19T20:18:44.976Z,96.00
2017-12-19T20:21:14.336Z,96.00
2017-12-19T20:23:43.527Z,96.10
2017-12-19T20:26:12.401Z,96.10
2017-12-19T20:28:41.178Z,95.90
2017-12-19T20:31:10.382Z,96.10
2017-12-19T20:33:39.523Z,96.10
2017-12-19T20:36:08.209Z,96.00
2017-12-19T20:38:38.670Z,96.00
2017-12-19T20:41:09.314Z,96.10
2017-12-19T20:43:38.741Z,96.10
2017-12-19T20:46:06.980Z,96.20
2017-12-19T20:48:36.401Z,96.20
2017-12-19T20:51:04.938Z,96.20
2017-12-19T20:53:33.605Z,96.10
2017-12-19T20:56:01.538Z,96.10
2017-12-19T20:58:29.979Z,96.20
2017-12-19T21:00:57.889Z,96.20
2017-12-19T21:03:25.414Z,96.20
2017-12-19T21:05:53.010Z,96.30
2017-12-19T21:08:20.964Z,96.30
2017-12-19T21:10:49.055Z,96.40
2017-12-19T21:13:16.676Z,96.40
2017-12-19T21:15:44.566Z,96.40
2017-12-19T21:18:12.444Z,96.40
2017-12-19T21:20:40.551Z,96.40
2017-12-19T21:23:09.232Z,96.40
2017-12-19T21:25:37.570Z,96.40
2017-12-19T21:28:06.070Z,96.50
2017-12-19T21:30:33.657Z,96.50
2017-12-19T21:33:01.204Z,96.50
2017-12-19T21:35:28.730Z,96.60
2017-12-19T21:37:56.273Z,96.30
2017-12-19T21:40:24.024Z,96.40
2017-12-19T21:42:53.336Z,96.40
2017-12-19T21:45:20.935Z,96.40
2017-12-19T21:47:48.705Z,96.40
2017-12-19T21:50:16.369Z,96.20
2017-12-19T21:52:44.313Z,96.30
2017-12-19T21:55:12.658Z,96.30
2017-12-19T21:57:41.021Z,96.30
2017-12-19T22:00:09.147Z,96.40
2017-12-19T22:02:36.826Z,96.40
2017-12-19T22:05:05.170Z,96.50
2017-12-19T22:07:32.727Z,96.50
2017-12-19T22:10:00.276Z,96.50
2017-12-19T22:12:28.588Z,96.60
2017-12-19T22:14:56.108Z,96.50
2017-12-19T22:17:24.442Z,96.70
2017-12-19T22:19:51.969Z,96.70
2017-12-19T22:22:19.976Z,96.70
2017-12-19T22:24:47.973Z,96.80
2017-12-19T22:27:15.704Z,96.80
2017-12-19T22:29:43.603Z,96.80
2017-12-19T22:32:11.532Z,96.80
2017-12-19T22:34:39.718Z,96.70
2017-12-19T22:37:09.139Z,96.80
2017-12-19T22:39:37.157Z,96.80
2017-12-19T22:42:04.951Z,96.90
2017-12-19T22:44:32.470Z,96.90
2017-12-19T22:47:00.778Z,96.90
2017-12-19T22:49:28.297Z,96.90
2017-12-19T22:51:55.846Z,96.90
2017-12-19T22:54:23.376Z,97.10
2017-12-19T22:56:51.190Z,96.90
2017-12-19T22:59:19.935Z,97.10
2017-12-19T23:01:47.882Z,97.10
2017-12-19T23:04:15.771Z,97.10
2017-12-19T23:06:43.924Z,97.10
2017-12-19T23:09:12.201Z,97.20
2017-12-19T23:11:41.110Z,97.20
2017-12-19T23:14:09.986Z,97.20
2017-12-19T23:16:39.765Z,97.20
2017-12-19T23:19:07.829Z,97.20
2017-12-19T23:21:36.351Z,97.30
2017-12-19T23:24:04.901Z,97.30
2017-12-19T23:26:33.881Z,97.30
2017-12-19T23:29:01.417Z,97.30
2017-12-19T23:31:28.966Z,97.30
2017-12-19T23:33:56.509Z,97.30
2017-12-19T23:36:24.031Z,97.30
2017-12-19T23:38:52.337Z,97.30
2017-12-19T23:41:19.859Z,97.30
2017-12-19T23:43:47.522Z,97.30
2017-12-19T23:46:15.333Z,97.60
2017-12-19T23:48:43.008Z,97.40
2017-12-19T23:51:11.251Z,97.40
2017-12-19T23:53:39.497Z,97.40
2017-12-19T23:56:09.158Z,97.40
2017-12-19T23:58:38.191Z,97.40
